sensor_id;sensor_type;location;lat;lon;timestamp;P1;durP1;ratioP1;P2;durP2;ratioP2
5730;SDS011;2890;51.950;7.668;2023-07-31T00:01:00;11.47;;;10.33;;
5730;SDS011;2890;51.950;7.668;2023-07-31T00:03:27;10.93;;;10.03;;
5730;SDS011;2890;51.950;7.668;2023-07-31T00:05:53;10.30;;;9.33;;
5730;SDS011;2890;51.950;7.668;2023-07-31T00:08:20;10.17;;;9.23;;
5730;SDS011;2890;51.950;7.668;2023-07-31T00:10:50;8.97;;;8.37;;
5730;SDS011;2890;51.950;7.668;2023-07-31T00:13:17;7.10;;;6.60;;
5730;SDS011;2890;51.950;7.668;2023-07-31T00:15:44;7.00;;;6.50;;
5730;SDS011;2890;51.950;7.668;2023-07-31T00:18:10;4.93;;;4.53;;
5730;SDS011;2890;51.950;7.668;2023-07-31T00:20:51;5.20;;;4.70;;
5730;SDS011;2890;51.950;7.668;2023-07-31T00:23:17;4.57;;;4.10;;
5730;SDS011;2890;51.950;7.668;2023-07-31T00:25:44;4.40;;;4.10;;
5730;SDS011;2890;51.950;7.668;2023-07-31T00:28:11;4.80;;;4.50;;
5730;SDS011;2890;51.950;7.668;2023-07-31T00:30:38;4.07;;;3.77;;
5730;SDS011;2890;51.950;7.668;2023-07-31T00:33:04;3.40;;;3.20;;
5730;SDS011;2890;51.950;7.668;2023-07-31T00:35:31;4.27;;;3.97;;
5730;SDS011;2890;51.950;7.668;2023-07-31T00:37:57;4.67;;;4.27;;
5730;SDS011;2890;51.950;7.668;2023-07-31T00:40:24;5.30;;;3.67;;
5730;SDS011;2890;51.950;7.668;2023-07-31T00:42:51;3.93;;;3.63;;
5730;SDS011;2890;51.950;7.668;2023-07-31T00:45:19;3.90;;;3.60;;
5730;SDS011;2890;51.950;7.668;2023-07-31T00:47:45;4.33;;;3.47;;
5730;SDS011;2890;51.950;7.668;2023-07-31T00:50:12;5.97;;;3.37;;
5730;SDS011;2890;51.950;7.668;2023-07-31T00:52:39;4.00;;;3.70;;
5730;SDS011;2890;51.950;7.668;2023-07-31T00:55:06;3.73;;;3.43;;
5730;SDS011;2890;51.950;7.668;2023-07-31T00:57:33;5.13;;;3.10;;
5730;SDS011;2890;51.950;7.668;2023-07-31T01:00:00;6.00;;;3.60;;
5730;SDS011;2890;51.950;7.668;2023-07-31T01:02:29;4.33;;;3.77;;
5730;SDS011;2890;51.950;7.668;2023-07-31T01:04:56;5.07;;;3.90;;
5730;SDS011;2890;51.950;7.668;2023-07-31T01:07:25;4.37;;;3.90;;
5730;SDS011;2890;51.950;7.668;2023-07-31T01:09:57;4.37;;;3.90;;
5730;SDS011;2890;51.950;7.668;2023-07-31T01:12:28;4.67;;;4.07;;
5730;SDS011;2890;51.950;7.668;2023-07-31T01:15:03;4.43;;;3.73;;
5730;SDS011;2890;51.950;7.668;2023-07-31T01:17:31;4.60;;;4.20;;
5730;SDS011;2890;51.950;7.668;2023-07-31T01:20:00;4.90;;;4.03;;
5730;SDS011;2890;51.950;7.668;2023-07-31T01:22:31;4.67;;;4.20;;
5730;SDS011;2890;51.950;7.668;2023-07-31T01:25:12;4.23;;;3.83;;
5730;SDS011;2890;51.950;7.668;2023-07-31T01:27:46;5.37;;;4.90;;
5730;SDS011;2890;51.950;7.668;2023-07-31T01:30:20;5.27;;;4.03;;
5730;SDS011;2890;51.950;7.668;2023-07-31T01:32:49;4.90;;;4.60;;
5730;SDS011;2890;51.950;7.668;2023-07-31T01:35:17;7.30;;;4.40;;
5730;SDS011;2890;51.950;7.668;2023-07-31T01:37:43;5.70;;;5.10;;
5730;SDS011;2890;51.950;7.668;2023-07-31T01:40:11;5.47;;;4.97;;
5730;SDS011;2890;51.950;7.668;2023-07-31T01:42:37;4.70;;;4.30;;
5730;SDS011;2890;51.950;7.668;2023-07-31T01:45:06;4.30;;;4.00;;
5730;SDS011;2890;51.950;7.668;2023-07-31T01:47:33;8.57;;;5.70;;
5730;SDS011;2890;51.950;7.668;2023-07-31T01:50:00;4.03;;;3.73;;
5730;SDS011;2890;51.950;7.668;2023-07-31T01:52:26;4.20;;;3.80;;
5730;SDS011;2890;51.950;7.668;2023-07-31T01:54:53;4.83;;;4.33;;
5730;SDS011;2890;51.950;7.668;2023-07-31T01:57:20;4.80;;;4.30;;
5730;SDS011;2890;51.950;7.668;2023-07-31T01:59:46;5.90;;;3.30;;
5730;SDS011;2890;51.950;7.668;2023-07-31T02:02:14;5.10;;;4.10;;
5730;SDS011;2890;51.950;7.668;2023-07-31T02:04:40;5.07;;;4.67;;
5730;SDS011;2890;51.950;7.668;2023-07-31T02:07:07;7.97;;;4.27;;
5730;SDS011;2890;51.950;7.668;2023-07-31T02:09:33;5.20;;;4.70;;
5730;SDS011;2890;51.950;7.668;2023-07-31T02:12:00;5.27;;;4.80;;
5730;SDS011;2890;51.950;7.668;2023-07-31T02:14:26;6.70;;;5.60;;
5730;SDS011;2890;51.950;7.668;2023-07-31T02:16:53;11.10;;;7.00;;
5730;SDS011;2890;51.950;7.668;2023-07-31T02:19:21;9.93;;;7.90;;
5730;SDS011;2890;51.950;7.668;2023-07-31T02:21:47;8.47;;;6.87;;
5730;SDS011;2890;51.950;7.668;2023-07-31T02:24:14;18.03;;;8.70;;
5730;SDS011;2890;51.950;7.668;2023-07-31T02:26:40;14.20;;;9.17;;
5730;SDS011;2890;51.950;7.668;2023-07-31T02:29:07;22.37;;;9.43;;
5730;SDS011;2890;51.950;7.668;2023-07-31T02:31:34;24.30;;;12.13;;
5730;SDS011;2890;51.950;7.668;2023-07-31T02:34:00;38.83;;;14.27;;
5730;SDS011;2890;51.950;7.668;2023-07-31T02:36:28;37.80;;;16.10;;
5730;SDS011;2890;51.950;7.668;2023-07-31T02:38:55;42.23;;;16.00;;
5730;SDS011;2890;51.950;7.668;2023-07-31T02:41:21;39.30;;;17.60;;
5730;SDS011;2890;51.950;7.668;2023-07-31T02:43:48;42.87;;;18.90;;
5730;SDS011;2890;51.950;7.668;2023-07-31T02:46:14;54.03;;;19.20;;
5730;SDS011;2890;51.950;7.668;2023-07-31T02:48:41;43.67;;;18.50;;
5730;SDS011;2890;51.950;7.668;2023-07-31T02:51:07;38.10;;;17.90;;
5730;SDS011;2890;51.950;7.668;2023-07-31T02:53:35;49.63;;;20.00;;
5730;SDS011;2890;51.950;7.668;2023-07-31T02:56:02;36.53;;;18.17;;
5730;SDS011;2890;51.950;7.668;2023-07-31T02:58:28;40.57;;;17.93;;
5730;SDS011;2890;51.950;7.668;2023-07-31T03:00:55;47.27;;;20.03;;
5730;SDS011;2890;51.950;7.668;2023-07-31T03:03:21;43.30;;;19.50;;
5730;SDS011;2890;51.950;7.668;2023-07-31T03:05:48;54.57;;;19.70;;
5730;SDS011;2890;51.950;7.668;2023-07-31T03:08:14;43.53;;;17.37;;
5730;SDS011;2890;51.950;7.668;2023-07-31T03:10:42;38.10;;;17.83;;
5730;SDS011;2890;51.950;7.668;2023-07-31T03:13:09;35.60;;;16.17;;
5730;SDS011;2890;51.950;7.668;2023-07-31T03:15:35;31.03;;;15.70;;
5730;SDS011;2890;51.950;7.668;2023-07-31T03:18:02;37.20;;;15.50;;
5730;SDS011;2890;51.950;7.668;2023-07-31T03:20:28;30.63;;;14.40;;
5730;SDS011;2890;51.950;7.668;2023-07-31T03:22:55;31.63;;;14.63;;
5730;SDS011;2890;51.950;7.668;2023-07-31T03:25:21;29.83;;;14.13;;
5730;SDS011;2890;51.950;7.668;2023-07-31T03:27:49;30.23;;;13.23;;
5730;SDS011;2890;51.950;7.668;2023-07-31T03:30:16;35.97;;;14.70;;
5730;SDS011;2890;51.950;7.668;2023-07-31T03:32:42;33.83;;;13.90;;
5730;SDS011;2890;51.950;7.668;2023-07-31T03:35:08;30.93;;;13.40;;
5730;SDS011;2890;51.950;7.668;2023-07-31T03:37:35;32.47;;;14.00;;
5730;SDS011;2890;51.950;7.668;2023-07-31T03:40:02;23.37;;;12.60;;
5730;SDS011;2890;51.950;7.668;2023-07-31T03:42:29;29.07;;;12.73;;
5730;SDS011;2890;51.950;7.668;2023-07-31T03:44:57;26.80;;;12.30;;
5730;SDS011;2890;51.950;7.668;2023-07-31T03:47:23;24.23;;;12.30;;
5730;SDS011;2890;51.950;7.668;2023-07-31T03:49:50;26.80;;;11.10;;
5730;SDS011;2890;51.950;7.668;2023-07-31T03:52:16;26.17;;;11.87;;
5730;SDS011;2890;51.950;7.668;2023-07-31T03:54:43;30.40;;;11.87;;
5730;SDS011;2890;51.950;7.668;2023-07-31T03:57:10;30.83;;;12.40;;
5730;SDS011;2890;51.950;7.668;2023-07-31T03:59:37;33.20;;;11.87;;
5730;SDS011;2890;51.950;7.668;2023-07-31T04:02:05;28.23;;;12.50;;
5730;SDS011;2890;51.950;7.668;2023-07-31T04:04:32;29.07;;;11.80;;
5730;SDS011;2890;51.950;7.668;2023-07-31T04:06:58;24.93;;;10.93;;
5730;SDS011;2890;51.950;7.668;2023-07-31T04:09:24;24.10;;;12.50;;
5730;SDS011;2890;51.950;7.668;2023-07-31T04:11:51;38.37;;;12.30;;
5730;SDS011;2890;51.950;7.668;2023-07-31T04:14:17;23.53;;;11.97;;
5730;SDS011;2890;51.950;7.668;2023-07-31T04:16:44;31.83;;;11.93;;
5730;SDS011;2890;51.950;7.668;2023-07-31T04:19:12;31.20;;;12.17;;
5730;SDS011;2890;51.950;7.668;2023-07-31T04:21:41;29.33;;;11.50;;
5730;SDS011;2890;51.950;7.668;2023-07-31T04:24:08;24.60;;;11.50;;
5730;SDS011;2890;51.950;7.668;2023-07-31T04:26:34;23.20;;;10.80;;
5730;SDS011;2890;51.950;7.668;2023-07-31T04:29:01;23.63;;;9.77;;
5730;SDS011;2890;51.950;7.668;2023-07-31T04:31:27;27.77;;;10.90;;
5730;SDS011;2890;51.950;7.668;2023-07-31T04:33:54;23.40;;;9.63;;
5730;SDS011;2890;51.950;7.668;2023-07-31T04:36:21;28.23;;;9.87;;
5730;SDS011;2890;51.950;7.668;2023-07-31T04:38:48;18.03;;;9.37;;
5730;SDS011;2890;51.950;7.668;2023-07-31T04:41:14;26.80;;;10.13;;
5730;SDS011;2890;51.950;7.668;2023-07-31T04:43:41;24.70;;;10.20;;
5730;SDS011;2890;51.950;7.668;2023-07-31T04:46:07;23.60;;;10.27;;
5730;SDS011;2890;51.950;7.668;2023-07-31T04:48:34;24.60;;;9.10;;
5730;SDS011;2890;51.950;7.668;2023-07-31T04:51:00;23.33;;;9.90;;
5730;SDS011;2890;51.950;7.668;2023-07-31T04:53:28;25.20;;;8.87;;
5730;SDS011;2890;51.950;7.668;2023-07-31T04:55:55;22.60;;;9.47;;
5730;SDS011;2890;51.950;7.668;2023-07-31T04:58:21;24.93;;;8.97;;
5730;SDS011;2890;51.950;7.668;2023-07-31T05:00:48;26.40;;;8.93;;
5730;SDS011;2890;51.950;7.668;2023-07-31T05:03:14;26.73;;;8.53;;
5730;SDS011;2890;51.950;7.668;2023-07-31T05:05:41;19.10;;;8.43;;
5730;SDS011;2890;51.950;7.668;2023-07-31T05:08:07;24.80;;;9.37;;
5730;SDS011;2890;51.950;7.668;2023-07-31T05:10:35;25.00;;;9.70;;
5730;SDS011;2890;51.950;7.668;2023-07-31T05:13:02;20.80;;;9.20;;
5730;SDS011;2890;51.950;7.668;2023-07-31T05:15:28;24.37;;;9.57;;
5730;SDS011;2890;51.950;7.668;2023-07-31T05:17:55;21.80;;;9.90;;
5730;SDS011;2890;51.950;7.668;2023-07-31T05:20:22;19.40;;;7.60;;
5730;SDS011;2890;51.950;7.668;2023-07-31T05:22:48;16.70;;;8.70;;
5730;SDS011;2890;51.950;7.668;2023-07-31T05:25:15;16.70;;;8.70;;
5730;SDS011;2890;51.950;7.668;2023-07-31T05:27:42;21.23;;;9.17;;
5730;SDS011;2890;51.950;7.668;2023-07-31T05:30:09;20.53;;;8.60;;
5730;SDS011;2890;51.950;7.668;2023-07-31T05:32:36;17.53;;;8.83;;
5730;SDS011;2890;51.950;7.668;2023-07-31T05:35:02;14.23;;;8.97;;
5730;SDS011;2890;51.950;7.668;2023-07-31T05:37:29;18.53;;;8.80;;
5730;SDS011;2890;51.950;7.668;2023-07-31T05:39:56;20.73;;;8.30;;
5730;SDS011;2890;51.950;7.668;2023-07-31T05:42:22;22.30;;;8.93;;
5730;SDS011;2890;51.950;7.668;2023-07-31T05:44:50;18.40;;;9.00;;
5730;SDS011;2890;51.950;7.668;2023-07-31T05:47:18;16.50;;;9.20;;
5730;SDS011;2890;51.950;7.668;2023-07-31T05:49:44;17.20;;;8.90;;
5730;SDS011;2890;51.950;7.668;2023-07-31T05:52:11;18.90;;;8.10;;
5730;SDS011;2890;51.950;7.668;2023-07-31T05:54:37;17.20;;;9.23;;
5730;SDS011;2890;51.950;7.668;2023-07-31T05:57:04;18.10;;;8.40;;
5730;SDS011;2890;51.950;7.668;2023-07-31T05:59:31;20.50;;;8.20;;
5730;SDS011;2890;51.950;7.668;2023-07-31T06:01:59;11.40;;;7.47;;
5730;SDS011;2890;51.950;7.668;2023-07-31T06:04:26;19.50;;;8.40;;
5730;SDS011;2890;51.950;7.668;2023-07-31T06:06:53;18.23;;;8.33;;
5730;SDS011;2890;51.950;7.668;2023-07-31T06:09:20;22.33;;;8.03;;
5730;SDS011;2890;51.950;7.668;2023-07-31T06:11:47;19.50;;;8.50;;
5730;SDS011;2890;51.950;7.668;2023-07-31T06:14:13;18.93;;;8.37;;
5730;SDS011;2890;51.950;7.668;2023-07-31T06:16:40;19.37;;;7.73;;
5730;SDS011;2890;51.950;7.668;2023-07-31T06:19:08;14.07;;;8.10;;
5730;SDS011;2890;51.950;7.668;2023-07-31T06:21:34;19.03;;;8.43;;
5730;SDS011;2890;51.950;7.668;2023-07-31T06:24:02;17.40;;;8.93;;
5730;SDS011;2890;51.950;7.668;2023-07-31T06:26:29;20.40;;;9.10;;
5730;SDS011;2890;51.950;7.668;2023-07-31T06:28:55;21.60;;;8.83;;
5730;SDS011;2890;51.950;7.668;2023-07-31T06:31:22;23.10;;;9.90;;
5730;SDS011;2890;51.950;7.668;2023-07-31T06:33:48;20.07;;;9.57;;
5730;SDS011;2890;51.950;7.668;2023-07-31T06:36:16;18.60;;;8.40;;
5730;SDS011;2890;51.950;7.668;2023-07-31T06:38:43;20.13;;;9.40;;
5730;SDS011;2890;51.950;7.668;2023-07-31T06:41:09;17.50;;;8.97;;
5730;SDS011;2890;51.950;7.668;2023-07-31T06:43:36;19.97;;;10.00;;
5730;SDS011;2890;51.950;7.668;2023-07-31T06:46:04;20.53;;;9.70;;
5730;SDS011;2890;51.950;7.668;2023-07-31T06:48:31;20.23;;;10.03;;
5730;SDS011;2890;51.950;7.668;2023-07-31T06:50:58;23.87;;;9.40;;
5730;SDS011;2890;51.950;7.668;2023-07-31T06:53:26;17.07;;;9.00;;
5730;SDS011;2890;51.950;7.668;2023-07-31T06:55:52;14.70;;;8.83;;
5730;SDS011;2890;51.950;7.668;2023-07-31T06:58:19;17.03;;;9.30;;
5730;SDS011;2890;51.950;7.668;2023-07-31T07:00:46;21.97;;;9.20;;
5730;SDS011;2890;51.950;7.668;2023-07-31T07:03:14;32.27;;;10.27;;
5730;SDS011;2890;51.950;7.668;2023-07-31T07:05:40;30.40;;;11.10;;
5730;SDS011;2890;51.950;7.668;2023-07-31T07:08:07;41.50;;;12.77;;
5730;SDS011;2890;51.950;7.668;2023-07-31T07:10:35;36.67;;;13.23;;
5730;SDS011;2890;51.950;7.668;2023-07-31T07:13:01;28.27;;;12.97;;
5730;SDS011;2890;51.950;7.668;2023-07-31T07:15:28;21.77;;;11.37;;
5730;SDS011;2890;51.950;7.668;2023-07-31T07:17:54;43.63;;;14.20;;
5730;SDS011;2890;51.950;7.668;2023-07-31T07:20:21;23.60;;;13.33;;
5730;SDS011;2890;51.950;7.668;2023-07-31T07:22:47;37.20;;;15.10;;
5730;SDS011;2890;51.950;7.668;2023-07-31T07:25:14;30.73;;;14.33;;
5730;SDS011;2890;51.950;7.668;2023-07-31T07:27:42;37.37;;;16.40;;
5730;SDS011;2890;51.950;7.668;2023-07-31T07:30:09;35.97;;;16.70;;
5730;SDS011;2890;51.950;7.668;2023-07-31T07:32:36;33.37;;;16.13;;
5730;SDS011;2890;51.950;7.668;2023-07-31T07:35:02;37.40;;;18.80;;
5730;SDS011;2890;51.950;7.668;2023-07-31T07:37:29;32.67;;;16.80;;
5730;SDS011;2890;51.950;7.668;2023-07-31T07:39:56;33.30;;;16.77;;
5730;SDS011;2890;51.950;7.668;2023-07-31T07:42:22;41.20;;;18.60;;
5730;SDS011;2890;51.950;7.668;2023-07-31T07:44:50;32.93;;;19.00;;
5730;SDS011;2890;51.950;7.668;2023-07-31T07:47:17;23.83;;;17.13;;
5730;SDS011;2890;51.950;7.668;2023-07-31T07:49:43;25.23;;;15.87;;
5730;SDS011;2890;51.950;7.668;2023-07-31T07:52:10;23.83;;;15.40;;
5730;SDS011;2890;51.950;7.668;2023-07-31T07:54:36;24.87;;;15.70;;
5730;SDS011;2890;51.950;7.668;2023-07-31T07:57:03;30.80;;;16.33;;
5730;SDS011;2890;51.950;7.668;2023-07-31T07:59:30;20.50;;;15.17;;
5730;SDS011;2890;51.950;7.668;2023-07-31T08:01:58;26.67;;;15.30;;
5730;SDS011;2890;51.950;7.668;2023-07-31T08:04:24;22.20;;;14.40;;
5730;SDS011;2890;51.950;7.668;2023-07-31T08:06:51;18.50;;;13.70;;
5730;SDS011;2890;51.950;7.668;2023-07-31T08:09:17;17.00;;;13.20;;
5730;SDS011;2890;51.950;7.668;2023-07-31T08:11:43;20.80;;;14.53;;
5730;SDS011;2890;51.950;7.668;2023-07-31T08:14:10;15.60;;;13.30;;
5730;SDS011;2890;51.950;7.668;2023-07-31T08:16:36;17.33;;;14.20;;
5730;SDS011;2890;51.950;7.668;2023-07-31T08:19:04;13.13;;;11.70;;
5730;SDS011;2890;51.950;7.668;2023-07-31T08:21:31;19.77;;;11.40;;
5730;SDS011;2890;51.950;7.668;2023-07-31T08:23:57;14.37;;;11.63;;
5730;SDS011;2890;51.950;7.668;2023-07-31T08:26:24;12.53;;;11.23;;
5730;SDS011;2890;51.950;7.668;2023-07-31T08:28:50;16.30;;;12.30;;
5730;SDS011;2890;51.950;7.668;2023-07-31T08:31:17;11.23;;;10.13;;
5730;SDS011;2890;51.950;7.668;2023-07-31T08:33:44;13.73;;;11.43;;
5730;SDS011;2890;51.950;7.668;2023-07-31T08:36:12;11.30;;;10.20;;
5730;SDS011;2890;51.950;7.668;2023-07-31T08:38:39;10.40;;;9.40;;
5730;SDS011;2890;51.950;7.668;2023-07-31T08:41:05;12.00;;;10.80;;
5730;SDS011;2890;51.950;7.668;2023-07-31T08:43:32;12.43;;;10.50;;
5730;SDS011;2890;51.950;7.668;2023-07-31T08:45:58;12.07;;;10.60;;
5730;SDS011;2890;51.950;7.668;2023-07-31T08:48:25;9.70;;;8.90;;
5730;SDS011;2890;51.950;7.668;2023-07-31T08:50:52;10.63;;;9.70;;
5730;SDS011;2890;51.950;7.668;2023-07-31T08:53:20;11.33;;;10.10;;
5730;SDS011;2890;51.950;7.668;2023-07-31T08:55:47;10.50;;;8.43;;
5730;SDS011;2890;51.950;7.668;2023-07-31T08:58:14;10.63;;;9.63;;
5730;SDS011;2890;51.950;7.668;2023-07-31T09:00:41;11.00;;;9.90;;
5730;SDS011;2890;51.950;7.668;2023-07-31T09:03:12;9.70;;;8.83;;
5730;SDS011;2890;51.950;7.668;2023-07-31T09:05:41;10.07;;;9.47;;
5730;SDS011;2890;51.950;7.668;2023-07-31T09:08:09;9.03;;;8.43;;
5730;SDS011;2890;51.950;7.668;2023-07-31T09:10:37;8.17;;;7.50;;
5730;SDS011;2890;51.950;7.668;2023-07-31T09:13:10;8.23;;;7.73;;
5730;SDS011;2890;51.950;7.668;2023-07-31T09:15:46;9.27;;;8.67;;
5730;SDS011;2890;51.950;7.668;2023-07-31T09:18:12;9.30;;;8.40;;
5730;SDS011;2890;51.950;7.668;2023-07-31T09:20:42;10.50;;;9.70;;
5730;SDS011;2890;51.950;7.668;2023-07-31T09:23:09;8.13;;;7.53;;
5730;SDS011;2890;51.950;7.668;2023-07-31T09:25:43;9.90;;;9.13;;
5730;SDS011;2890;51.950;7.668;2023-07-31T09:28:13;8.93;;;8.17;;
5730;SDS011;2890;51.950;7.668;2023-07-31T09:30:46;8.27;;;7.70;;
5730;SDS011;2890;51.950;7.668;2023-07-31T09:33:14;7.93;;;7.43;;
5730;SDS011;2890;51.950;7.668;2023-07-31T09:35:40;8.07;;;7.40;;
5730;SDS011;2890;51.950;7.668;2023-07-31T09:38:08;9.17;;;8.30;;
5730;SDS011;2890;51.950;7.668;2023-07-31T09:40:36;8.47;;;7.87;;
5730;SDS011;2890;51.950;7.668;2023-07-31T09:43:05;9.13;;;8.30;;
5730;SDS011;2890;51.950;7.668;2023-07-31T09:45:34;9.40;;;8.80;;
5730;SDS011;2890;51.950;7.668;2023-07-31T09:48:01;8.43;;;7.90;;
5730;SDS011;2890;51.950;7.668;2023-07-31T09:50:29;8.57;;;7.97;;
5730;SDS011;2890;51.950;7.668;2023-07-31T09:52:55;9.33;;;8.63;;
5730;SDS011;2890;51.950;7.668;2023-07-31T09:55:22;8.83;;;8.27;;
5730;SDS011;2890;51.950;7.668;2023-07-31T09:57:50;9.53;;;8.80;;
5730;SDS011;2890;51.950;7.668;2023-07-31T10:00:18;8.37;;;7.60;;
5730;SDS011;2890;51.950;7.668;2023-07-31T10:02:47;10.00;;;9.13;;
5730;SDS011;2890;51.950;7.668;2023-07-31T10:05:14;8.50;;;7.80;;
5730;SDS011;2890;51.950;7.668;2023-07-31T10:07:41;8.10;;;7.53;;
5730;SDS011;2890;51.950;7.668;2023-07-31T10:10:09;7.70;;;7.13;;
5730;SDS011;2890;51.950;7.668;2023-07-31T10:12:36;6.57;;;6.07;;
5730;SDS011;2890;51.950;7.668;2023-07-31T10:15:04;6.47;;;5.97;;
5730;SDS011;2890;51.950;7.668;2023-07-31T10:17:35;6.70;;;6.20;;
5730;SDS011;2890;51.950;7.668;2023-07-31T10:20:02;6.57;;;6.07;;
5730;SDS011;2890;51.950;7.668;2023-07-31T10:22:30;7.17;;;6.57;;
5730;SDS011;2890;51.950;7.668;2023-07-31T10:24:57;6.30;;;5.80;;
5730;SDS011;2890;51.950;7.668;2023-07-31T10:27:24;6.43;;;6.03;;
5730;SDS011;2890;51.950;7.668;2023-07-31T10:29:51;6.70;;;6.30;;
5730;SDS011;2890;51.950;7.668;2023-07-31T10:32:18;7.60;;;7.00;;
5730;SDS011;2890;51.950;7.668;2023-07-31T10:34:47;7.90;;;7.20;;
5730;SDS011;2890;51.950;7.668;2023-07-31T10:37:23;7.33;;;6.70;;
5730;SDS011;2890;51.950;7.668;2023-07-31T10:39:55;8.10;;;7.50;;
5730;SDS011;2890;51.950;7.668;2023-07-31T10:42:27;7.27;;;6.70;;
5730;SDS011;2890;51.950;7.668;2023-07-31T10:44:56;8.07;;;7.57;;
5730;SDS011;2890;51.950;7.668;2023-07-31T10:47:23;8.80;;;8.20;;
5730;SDS011;2890;51.950;7.668;2023-07-31T10:49:51;9.30;;;8.63;;
5730;SDS011;2890;51.950;7.668;2023-07-31T10:52:19;8.60;;;8.13;;
5730;SDS011;2890;51.950;7.668;2023-07-31T10:54:48;8.70;;;8.10;;
5730;SDS011;2890;51.950;7.668;2023-07-31T10:57:20;8.70;;;7.80;;
5730;SDS011;2890;51.950;7.668;2023-07-31T10:59:47;8.77;;;8.17;;
5730;SDS011;2890;51.950;7.668;2023-07-31T11:02:24;9.07;;;8.37;;
5730;SDS011;2890;51.950;7.668;2023-07-31T11:05:07;7.70;;;7.20;;
5730;SDS011;2890;51.950;7.668;2023-07-31T11:07:46;9.00;;;8.30;;
5730;SDS011;2890;51.950;7.668;2023-07-31T11:10:15;8.00;;;7.50;;
5730;SDS011;2890;51.950;7.668;2023-07-31T11:12:42;9.10;;;8.43;;
5730;SDS011;2890;51.950;7.668;2023-07-31T11:15:09;8.43;;;7.93;;
5730;SDS011;2890;51.950;7.668;2023-07-31T11:17:38;9.30;;;8.70;;
5730;SDS011;2890;51.950;7.668;2023-07-31T11:20:05;8.93;;;8.13;;
5730;SDS011;2890;51.950;7.668;2023-07-31T11:22:34;8.20;;;7.70;;
5730;SDS011;2890;51.950;7.668;2023-07-31T11:25:01;8.50;;;7.90;;
5730;SDS011;2890;51.950;7.668;2023-07-31T11:27:27;7.80;;;7.20;;
5730;SDS011;2890;51.950;7.668;2023-07-31T11:29:59;9.40;;;8.50;;
5730;SDS011;2890;51.950;7.668;2023-07-31T11:32:26;8.30;;;7.60;;
5730;SDS011;2890;51.950;7.668;2023-07-31T11:34:53;6.70;;;6.30;;
5730;SDS011;2890;51.950;7.668;2023-07-31T11:37:21;7.40;;;7.00;;
5730;SDS011;2890;51.950;7.668;2023-07-31T11:39:58;8.27;;;7.77;;
5730;SDS011;2890;51.950;7.668;2023-07-31T11:42:25;8.80;;;8.30;;
5730;SDS011;2890;51.950;7.668;2023-07-31T11:44:51;8.80;;;8.30;;
5730;SDS011;2890;51.950;7.668;2023-07-31T11:47:18;10.33;;;9.40;;
5730;SDS011;2890;51.950;7.668;2023-07-31T11:49:44;10.37;;;9.50;;
5730;SDS011;2890;51.950;7.668;2023-07-31T11:52:11;10.50;;;9.73;;
5730;SDS011;2890;51.950;7.668;2023-07-31T11:54:39;13.20;;;11.90;;
5730;SDS011;2890;51.950;7.668;2023-07-31T11:57:06;11.80;;;11.03;;
5730;SDS011;2890;51.950;7.668;2023-07-31T11:59:33;13.53;;;12.60;;
5730;SDS011;2890;51.950;7.668;2023-07-31T12:02:00;15.20;;;13.90;;
5730;SDS011;2890;51.950;7.668;2023-07-31T12:04:27;15.20;;;14.10;;
5730;SDS011;2890;51.950;7.668;2023-07-31T12:06:53;15.70;;;14.60;;
5730;SDS011;2890;51.950;7.668;2023-07-31T12:09:20;16.80;;;15.60;;
5730;SDS011;2890;51.950;7.668;2023-07-31T12:11:48;15.70;;;14.60;;
5730;SDS011;2890;51.950;7.668;2023-07-31T12:14:20;19.33;;;17.60;;
5730;SDS011;2890;51.950;7.668;2023-07-31T12:16:47;17.10;;;15.63;;
5730;SDS011;2890;51.950;7.668;2023-07-31T12:19:14;16.60;;;15.30;;
5730;SDS011;2890;51.950;7.668;2023-07-31T12:21:40;14.63;;;13.63;;
5730;SDS011;2890;51.950;7.668;2023-07-31T12:24:07;15.10;;;13.50;;
5730;SDS011;2890;51.950;7.668;2023-07-31T12:26:33;13.40;;;12.43;;
5730;SDS011;2890;51.950;7.668;2023-07-31T12:29:01;12.33;;;11.50;;
5730;SDS011;2890;51.950;7.668;2023-07-31T12:31:28;10.73;;;9.93;;
5730;SDS011;2890;51.950;7.668;2023-07-31T12:33:55;10.13;;;9.43;;
5730;SDS011;2890;51.950;7.668;2023-07-31T12:36:22;10.20;;;9.50;;
5730;SDS011;2890;51.950;7.668;2023-07-31T12:38:50;8.73;;;8.13;;
5730;SDS011;2890;51.950;7.668;2023-07-31T12:41:17;8.60;;;8.10;;
5730;SDS011;2890;51.950;7.668;2023-07-31T12:43:44;8.90;;;8.20;;
5730;SDS011;2890;51.950;7.668;2023-07-31T12:46:12;9.23;;;8.60;;
5730;SDS011;2890;51.950;7.668;2023-07-31T12:48:40;8.70;;;8.07;;
5730;SDS011;2890;51.950;7.668;2023-07-31T12:51:06;9.33;;;8.53;;
5730;SDS011;2890;51.950;7.668;2023-07-31T12:53:33;9.33;;;8.40;;
5730;SDS011;2890;51.950;7.668;2023-07-31T12:56:00;9.03;;;8.33;;
5730;SDS011;2890;51.950;7.668;2023-07-31T12:58:27;8.30;;;7.70;;
5730;SDS011;2890;51.950;7.668;2023-07-31T13:00:53;7.90;;;7.30;;
5730;SDS011;2890;51.950;7.668;2023-07-31T13:03:21;7.47;;;6.97;;
5730;SDS011;2890;51.950;7.668;2023-07-31T13:05:48;7.73;;;7.10;;
5730;SDS011;2890;51.950;7.668;2023-07-31T13:08:14;8.03;;;7.43;;
5730;SDS011;2890;51.950;7.668;2023-07-31T13:10:42;7.60;;;7.13;;
5730;SDS011;2890;51.950;7.668;2023-07-31T13:13:09;8.20;;;7.70;;
5730;SDS011;2890;51.950;7.668;2023-07-31T13:15:35;7.33;;;6.80;;
5730;SDS011;2890;51.950;7.668;2023-07-31T13:18:02;7.30;;;6.80;;
5730;SDS011;2890;51.950;7.668;2023-07-31T13:20:30;7.60;;;7.00;;
5730;SDS011;2890;51.950;7.668;2023-07-31T13:22:57;8.60;;;7.47;;
5730;SDS011;2890;51.950;7.668;2023-07-31T13:25:23;7.80;;;7.20;;
5730;SDS011;2890;51.950;7.668;2023-07-31T13:27:50;6.83;;;6.33;;
5730;SDS011;2890;51.950;7.668;2023-07-31T13:30:16;7.23;;;6.77;;
5730;SDS011;2890;51.950;7.668;2023-07-31T13:32:43;8.37;;;7.83;;
5730;SDS011;2890;51.950;7.668;2023-07-31T13:35:09;9.07;;;8.20;;
5730;SDS011;2890;51.950;7.668;2023-07-31T13:37:38;8.30;;;7.80;;
5730;SDS011;2890;51.950;7.668;2023-07-31T13:40:05;9.40;;;8.87;;
5730;SDS011;2890;51.950;7.668;2023-07-31T13:42:32;9.57;;;8.87;;
5730;SDS011;2890;51.950;7.668;2023-07-31T13:44:59;8.77;;;8.13;;
5730;SDS011;2890;51.950;7.668;2023-07-31T13:47:25;8.70;;;8.17;;
5730;SDS011;2890;51.950;7.668;2023-07-31T13:49:52;8.00;;;7.50;;
5730;SDS011;2890;51.950;7.668;2023-07-31T13:52:18;8.40;;;7.60;;
5730;SDS011;2890;51.950;7.668;2023-07-31T13:54:46;7.17;;;6.77;;
5730;SDS011;2890;51.950;7.668;2023-07-31T13:57:13;6.83;;;6.20;;
5730;SDS011;2890;51.950;7.668;2023-07-31T13:59:39;6.60;;;6.20;;
5730;SDS011;2890;51.950;7.668;2023-07-31T14:02:06;7.30;;;6.77;;
5730;SDS011;2890;51.950;7.668;2023-07-31T14:04:32;6.73;;;6.23;;
5730;SDS011;2890;51.950;7.668;2023-07-31T14:06:59;6.73;;;6.07;;
5730;SDS011;2890;51.950;7.668;2023-07-31T14:09:25;7.30;;;6.63;;
5730;SDS011;2890;51.950;7.668;2023-07-31T14:11:54;7.33;;;6.83;;
5730;SDS011;2890;51.950;7.668;2023-07-31T14:14:21;7.33;;;6.60;;
5730;SDS011;2890;51.950;7.668;2023-07-31T14:16:47;5.70;;;5.40;;
5730;SDS011;2890;51.950;7.668;2023-07-31T14:19:13;7.00;;;6.40;;
5730;SDS011;2890;51.950;7.668;2023-07-31T14:21:39;6.23;;;5.77;;
5730;SDS011;2890;51.950;7.668;2023-07-31T14:24:06;6.43;;;5.90;;
5730;SDS011;2890;51.950;7.668;2023-07-31T14:26:32;5.53;;;5.13;;
5730;SDS011;2890;51.950;7.668;2023-07-31T14:29:00;6.47;;;5.97;;
5730;SDS011;2890;51.950;7.668;2023-07-31T14:31:27;6.63;;;6.03;;
5730;SDS011;2890;51.950;7.668;2023-07-31T14:33:54;5.90;;;5.50;;
5730;SDS011;2890;51.950;7.668;2023-07-31T14:36:20;5.77;;;5.37;;
5730;SDS011;2890;51.950;7.668;2023-07-31T14:38:47;6.83;;;6.00;;
5730;SDS011;2890;51.950;7.668;2023-07-31T14:41:13;6.30;;;5.90;;
5730;SDS011;2890;51.950;7.668;2023-07-31T14:43:40;7.47;;;6.97;;
5730;SDS011;2890;51.950;7.668;2023-07-31T14:46:07;6.77;;;6.27;;
5730;SDS011;2890;51.950;7.668;2023-07-31T14:48:34;6.50;;;6.00;;
5730;SDS011;2890;51.950;7.668;2023-07-31T14:51:00;7.30;;;6.80;;
5730;SDS011;2890;51.950;7.668;2023-07-31T14:53:27;7.80;;;7.30;;
5730;SDS011;2890;51.950;7.668;2023-07-31T14:55:53;8.47;;;7.87;;
5730;SDS011;2890;51.950;7.668;2023-07-31T14:58:20;8.10;;;7.50;;
5730;SDS011;2890;51.950;7.668;2023-07-31T15:00:47;8.17;;;7.67;;
5730;SDS011;2890;51.950;7.668;2023-07-31T15:03:15;10.90;;;10.20;;